Time;durP1;ratioP1;P1;durP2;ratioP2;P2;SDS_P1;SDS_P2;PMS_P1;PMS_P2;Temp;Humidity;BMP_temperature;BMP_pressure;BME280_temperature;BME280_humidity;BME280_pressure;Samples;Min_cycle;Max_cycle;Signal;HPM_P1;HPM_P2
2023/12/26 00:01:46;;;;;;;0.98;0.70;;;;;;;;;;5076812;28;20715;-83
2023/12/26 00:04:12;;;;;;;1.00;0.50;;;;;;;;;;5077005;28;20177;-81
2023/12/26 00:06:40;;;;;;;1.75;0.50;;;;;;;;;;5076682;28;20231;-81
2023/12/26 00:09:06;;;;;;;0.60;0.40;;;;;;;;;;5076754;28;20542;-81
2023/12/26 00:11:32;;;;;;;0.77;0.65;;;;;;;;;;5077183;28;20212;-81
2023/12/26 00:13:58;;;;;;;1.00;0.50;;;;;;;;;;5075632;28;20180;-81
2023/12/26 00:16:24;;;;;;;0.77;0.57;;;;;;;;;;5076614;28;20403;-82
2023/12/26 00:18:50;;;;;;;0.70;0.50;;;;;;;;;;5076446;28;20407;-81
2023/12/26 00:21:16;;;;;;;0.90;0.60;;;;;;;;;;5076999;28;20180;-81
2023/12/26 00:23:42;;;;;;;0.60;0.50;;;;;;;;;;5077089;28;20177;-82
2023/12/26 00:26:08;;;;;;;0.70;0.60;;;;;;;;;;5075503;28;20461;-81
2023/12/26 00:28:34;;;;;;;1.90;0.60;;;;;;;;;;5076821;28;20423;-81
2023/12/26 00:31:00;;;;;;;2.33;0.73;;;;;;;;;;5058737;28;20463;-82
2023/12/26 00:33:27;;;;;;;0.90;0.60;;;;;;;;;;5078106;28;20169;-83
2023/12/26 00:35:55;;;;;;;1.88;0.70;;;;;;;;;;5077325;28;20179;-83
2023/12/26 00:38:21;;;;;;;2.65;0.70;;;;;;;;;;5077615;28;20315;-80
2023/12/26 00:40:47;;;;;;;1.27;0.95;;;;;;;;;;5076687;28;20326;-83
2023/12/26 00:43:13;;;;;;;6.05;1.52;;;;;;;;;;5076100;28;20206;-83
2023/12/26 00:45:39;;;;;;;2.00;0.60;;;;;;;;;;5076602;28;20256;-83
2023/12/26 00:48:05;;;;;;;0.70;0.50;;;;;;;;;;5058821;28;20411;-83
2023/12/26 00:50:31;;;;;;;2.00;0.70;;;;;;;;;;5076159;28;20232;-83
2023/12/26 00:52:58;;;;;;;0.70;0.50;;;;;;;;;;5076677;28;20220;-83
2023/12/26 00:55:25;;;;;;;1.45;0.85;;;;;;;;;;5076150;28;20914;-82
2023/12/26 00:57:51;;;;;;;2.40;0.85;;;;;;;;;;5075339;28;20196;-84
2023/12/26 01:00:18;;;;;;;2.75;0.70;;;;;;;;;;5076837;28;20234;-82
2023/12/26 01:02:44;;;;;;;1.15;0.80;;;;;;;;;;5075813;28;20745;-84
2023/12/26 01:05:10;;;;;;;0.90;0.65;;;;;;;;;;5075252;28;20208;-83
2023/12/26 01:07:36;;;;;;;1.30;0.75;;;;;;;;;;5075153;28;20184;-83
2023/12/26 01:10:04;;;;;;;2.00;0.70;;;;;;;;;;5074005;28;20188;-83
2023/12/26 01:12:30;;;;;;;1.05;0.90;;;;;;;;;;5076148;28;20208;-84
2023/12/26 01:14:56;;;;;;;1.60;0.70;;;;;;;;;;5075248;28;20169;-84
2023/12/26 01:17:22;;;;;;;0.80;0.67;;;;;;;;;;5075721;28;20398;-84
2023/12/26 01:19:48;;;;;;;0.70;0.40;;;;;;;;;;5075974;28;20439;-84
2023/12/26 01:22:15;;;;;;;1.35;0.65;;;;;;;;;;5075925;28;20209;-83
2023/12/26 01:24:41;;;;;;;0.85;0.60;;;;;;;;;;5075913;28;20208;-84
2023/12/26 01:27:07;;;;;;;0.70;0.50;;;;;;;;;;5075773;28;20192;-83
2023/12/26 01:29:33;;;;;;;0.70;0.50;;;;;;;;;;5076143;28;20426;-83
2023/12/26 01:31:59;;;;;;;0.70;0.60;;;;;;;;;;5075626;28;20208;-83
2023/12/26 01:34:25;;;;;;;2.55;0.60;;;;;;;;;;5075578;28;20176;-82
2023/12/26 01:36:51;;;;;;;1.27;0.60;;;;;;;;;;5075307;28;20539;-84
2023/12/26 01:39:17;;;;;;;0.85;0.65;;;;;;;;;;5076979;28;20403;-83
2023/12/26 01:41:43;;;;;;;0.68;0.47;;;;;;;;;;5083620;28;20172;-83
2023/12/26 01:44:09;;;;;;;1.20;0.70;;;;;;;;;;5076536;28;20298;-81
2023/12/26 01:46:35;;;;;;;2.83;0.70;;;;;;;;;;5077241;28;20954;-82
2023/12/26 01:49:01;;;;;;;1.45;0.60;;;;;;;;;;5075102;28;20203;-82
2023/12/26 01:51:29;;;;;;;1.20;0.70;;;;;;;;;;5075552;28;20228;-82
2023/12/26 01:53:55;;;;;;;0.80;0.60;;;;;;;;;;5073982;28;20188;-82
2023/12/26 01:56:21;;;;;;;0.85;0.70;;;;;;;;;;5076710;28;20594;-81
2023/12/26 01:58:48;;;;;;;0.85;0.60;;;;;;;;;;5076578;28;20200;-85
2023/12/26 02:01:15;;;;;;;0.90;0.50;;;;;;;;;;5075444;28;20222;-82
2023/12/26 02:03:41;;;;;;;3.00;0.63;;;;;;;;;;5075465;28;20200;-82
2023/12/26 02:06:07;;;;;;;1.67;0.63;;;;;;;;;;5074944;28;20672;-81
2023/12/26 02:08:33;;;;;;;3.95;0.80;;;;;;;;;;5075507;28;20554;-81
2023/12/26 02:10:59;;;;;;;1.17;0.50;;;;;;;;;;5074978;28;20219;-81
2023/12/26 02:13:25;;;;;;;1.37;0.90;;;;;;;;;;5075694;28;20173;-81
2023/12/26 02:15:52;;;;;;;1.05;0.57;;;;;;;;;;5074734;28;20439;-82
2023/12/26 02:18:18;;;;;;;1.17;0.70;;;;;;;;;;5075155;28;20268;-81
2023/12/26 02:20:44;;;;;;;7.28;0.88;;;;;;;;;;5079177;28;20628;-81
2023/12/26 02:23:10;;;;;;;1.57;1.43;;;;;;;;;;5079498;28;20188;-81
2023/12/26 02:25:36;;;;;;;1.07;0.97;;;;;;;;;;5079191;28;20812;-81
2023/12/26 02:28:03;;;;;;;2.78;1.02;;;;;;;;;;5079024;28;20468;-82
2023/12/26 02:30:30;;;;;;;2.47;0.80;;;;;;;;;;5077489;28;20169;-82
2023/12/26 02:32:56;;;;;;;2.25;0.60;;;;;;;;;;5078192;28;20739;-82
2023/12/26 02:35:23;;;;;;;8.25;0.85;;;;;;;;;;5079083;28;20185;-81
2023/12/26 02:37:49;;;;;;;1.00;0.70;;;;;;;;;;5078843;28;20168;-84
2023/12/26 02:40:15;;;;;;;1.33;0.75;;;;;;;;;;5079003;28;20659;-82
2023/12/26 02:42:41;;;;;;;1.25;0.80;;;;;;;;;;5079005;28;20188;-81
2023/12/26 02:45:08;;;;;;;1.53;0.70;;;;;;;;;;5078715;28;20173;-82
2023/12/26 02:47:34;;;;;;;1.08;0.77;;;;;;;;;;5061520;28;20595;-81
2023/12/26 02:50:00;;;;;;;2.00;1.03;;;;;;;;;;5077181;28;20236;-81
2023/12/26 02:52:26;;;;;;;1.10;0.80;;;;;;;;;;5078554;28;20470;-81
2023/12/26 02:54:52;;;;;;;2.30;0.60;;;;;;;;;;5078462;28;20203;-81
2023/12/26 02:57:18;;;;;;;1.63;0.73;;;;;;;;;;5079050;28;20489;-81
2023/12/26 02:59:44;;;;;;;1.50;0.70;;;;;;;;;;5078573;28;20411;-81
2023/12/26 03:02:10;;;;;;;1.43;0.60;;;;;;;;;;5078636;28;20903;-81
2023/12/26 03:04:36;;;;;;;1.38;0.82;;;;;;;;;;5078493;28;20431;-80
2023/12/26 03:07:02;;;;;;;1.73;0.77;;;;;;;;;;5078129;28;20516;-80
2023/12/26 03:09:28;;;;;;;1.75;0.70;;;;;;;;;;5078910;28;20544;-81
2023/12/26 03:11:54;;;;;;;1.23;0.70;;;;;;;;;;5076502;28;20299;-82
2023/12/26 03:14:20;;;;;;;1.27;0.80;;;;;;;;;;5077904;28;20410;-82
2023/12/26 03:16:46;;;;;;;2.42;0.70;;;;;;;;;;5077103;28;20411;-81
2023/12/26 03:19:12;;;;;;;1.55;0.70;;;;;;;;;;5078208;28;20181;-83
2023/12/26 03:21:38;;;;;;;2.25;0.80;;;;;;;;;;5077681;28;20268;-82
2023/12/26 03:24:04;;;;;;;1.23;0.80;;;;;;;;;;5077311;28;20283;-83
2023/12/26 03:26:30;;;;;;;1.77;0.90;;;;;;;;;;5077421;28;20415;-82
2023/12/26 03:28:56;;;;;;;0.90;0.70;;;;;;;;;;5076208;28;20674;-82
2023/12/26 03:31:22;;;;;;;8.23;0.80;;;;;;;;;;5076638;28;20455;-83
2023/12/26 03:33:48;;;;;;;0.80;0.70;;;;;;;;;;5077517;28;20203;-83
2023/12/26 03:36:14;;;;;;;3.73;1.20;;;;;;;;;;5077022;28;20172;-83
2023/12/26 03:38:43;;;;;;;1.88;0.88;;;;;;;;;;5076892;28;20422;-83
2023/12/26 03:41:09;;;;;;;1.60;0.98;;;;;;;;;;5078152;28;20189;-83
2023/12/26 03:43:35;;;;;;;1.70;0.95;;;;;;;;;;5077021;28;20208;-83
2023/12/26 03:46:02;;;;;;;1.83;0.67;;;;;;;;;;5077288;28;20177;-83
2023/12/26 03:48:28;;;;;;;2.97;1.10;;;;;;;;;;5077012;28;20410;-83
2023/12/26 03:50:54;;;;;;;4.03;0.70;;;;;;;;;;5077076;28;20232;-85
2023/12/26 03:53:20;;;;;;;1.38;0.80;;;;;;;;;;5076869;28;20541;-84
2023/12/26 03:55:49;;;;;;;1.00;0.70;;;;;;;;;;5075642;28;20181;-84
2023/12/26 03:58:15;;;;;;;1.80;0.60;;;;;;;;;;5076167;28;20177;-84
2023/12/26 04:00:41;;;;;;;1.40;0.70;;;;;;;;;;5077505;28;20180;-84
2023/12/26 04:03:07;;;;;;;1.00;0.70;;;;;;;;;;5075376;28;20789;-84
2023/12/26 04:05:33;;;;;;;1.67;0.50;;;;;;;;;;5076833;28;20188;-84
2023/12/26 04:07:59;;;;;;;1.57;0.90;;;;;;;;;;5076694;28;20476;-84
2023/12/26 04:10:25;;;;;;;0.90;0.60;;;;;;;;;;5076765;28;20439;-85
2023/12/26 04:12:51;;;;;;;1.00;0.60;;;;;;;;;;5075808;28;20676;-84
2023/12/26 04:15:17;;;;;;;0.90;0.70;;;;;;;;;;5075154;28;20412;-84
2023/12/26 04:17:43;;;;;;;0.98;0.80;;;;;;;;;;5076744;28;20460;-83
2023/12/26 04:20:09;;;;;;;1.55;0.85;;;;;;;;;;5076524;28;20183;-84
2023/12/26 04:22:35;;;;;;;6.38;0.82;;;;;;;;;;5076058;28;20180;-84
2023/12/26 04:25:01;;;;;;;1.10;1.00;;;;;;;;;;5076114;28;20184;-84
2023/12/26 04:27:27;;;;;;;2.15;0.90;;;;;;;;;;5076206;28;20406;-84
2023/12/26 04:29:53;;;;;;;1.20;0.60;;;;;;;;;;5076522;28;20675;-84
2023/12/26 04:32:19;;;;;;;2.50;0.98;;;;;;;;;;5075878;28;20465;-84
2023/12/26 04:34:45;;;;;;;0.83;0.60;;;;;;;;;;5076175;28;20177;-83
2023/12/26 04:37:11;;;;;;;1.33;0.70;;;;;;;;;;5076151;28;20400;-83
2023/12/26 04:39:37;;;;;;;1.02;0.80;;;;;;;;;;5075470;28;20407;-84
2023/12/26 04:42:03;;;;;;;1.70;0.73;;;;;;;;;;5075162;28;20238;-84
2023/12/26 04:44:29;;;;;;;0.80;0.57;;;;;;;;;;5075819;28;20427;-84
2023/12/26 04:46:55;;;;;;;1.10;0.60;;;;;;;;;;5075996;28;20183;-84
2023/12/26 04:49:21;;;;;;;2.05;1.00;;;;;;;;;;5075766;28;20463;-84
2023/12/26 04:51:47;;;;;;;1.00;0.70;;;;;;;;;;5076240;28;20204;-84
2023/12/26 04:54:13;;;;;;;1.33;0.90;;;;;;;;;;5073993;28;20946;-84
2023/12/26 04:56:43;;;;;;;1.30;0.90;;;;;;;;;;5075585;28;20181;-84
2023/12/26 04:59:09;;;;;;;1.23;0.80;;;;;;;;;;5075493;28;20663;-84
2023/12/26 05:01:40;;;;;;;1.75;0.70;;;;;;;;;;5075778;28;20654;-84
2023/12/26 05:04:06;;;;;;;3.08;1.30;;;;;;;;;;5073980;28;20177;-84
2023/12/26 05:06:32;;;;;;;2.20;1.30;;;;;;;;;;5075535;28;20636;-84
2023/12/26 05:08:58;;;;;;;2.50;0.90;;;;;;;;;;5075222;28;20419;-86
2023/12/26 05:11:24;;;;;;;3.23;1.13;;;;;;;;;;5075590;28;20470;-84
2023/12/26 05:13:51;;;;;;;1.40;0.98;;;;;;;;;;5075385;28;20741;-84
2023/12/26 05:16:17;;;;;;;4.22;1.42;;;;;;;;;;5075322;28;20292;-83
2023/12/26 05:18:43;;;;;;;1.83;1.08;;;;;;;;;;5075471;28;20184;-83
2023/12/26 05:21:22;;;;;;;2.65;1.40;;;;;;;;;;5075038;28;20185;-84
2023/12/26 05:23:48;;;;;;;3.22;1.35;;;;;;;;;;5075146;28;20187;-83
2023/12/26 05:26:15;;;;;;;5.90;1.35;;;;;;;;;;5075200;28;20251;-84
2023/12/26 05:28:41;;;;;;;2.30;1.35;;;;;;;;;;5075448;28;20227;-83
2023/12/26 05:31:07;;;;;;;6.80;1.35;;;;;;;;;;5074868;28;20542;-84
2023/12/26 05:33:33;;;;;;;3.33;1.27;;;;;;;;;;5075186;28;20540;-83
2023/12/26 05:36:01;;;;;;;4.47;1.10;;;;;;;;;;5074918;28;20169;-83
2023/12/26 05:38:27;;;;;;;3.30;1.40;;;;;;;;;;5075535;28;20181;-83
2023/12/26 05:40:53;;;;;;;3.93;1.50;;;;;;;;;;5075178;28;20181;-83
2023/12/26 05:43:19;;;;;;;1.65;1.25;;;;;;;;;;5074599;28;20457;-83
2023/12/26 05:45:45;;;;;;;6.82;1.23;;;;;;;;;;5074743;28;20188;-82
2023/12/26 05:48:11;;;;;;;5.32;1.08;;;;;;;;;;5074518;28;20261;-83
2023/12/26 05:50:36;;;;;;;1.40;1.30;;;;;;;;;;5074536;28;20307;-83
2023/12/26 05:53:03;;;;;;;2.85;1.15;;;;;;;;;;5074748;28;20470;-84
2023/12/26 05:55:29;;;;;;;3.63;1.00;;;;;;;;;;5074258;28;20180;-83
2023/12/26 05:57:55;;;;;;;6.93;1.95;;;;;;;;;;5074761;28;20187;-83
2023/12/26 06:00:21;;;;;;;4.70;1.30;;;;;;;;;;5074571;28;20537;-83
2023/12/26 06:02:47;;;;;;;5.60;1.87;;;;;;;;;;5074793;28;20411;-83
2023/12/26 06:05:13;;;;;;;7.55;2.33;;;;;;;;;;5074664;28;20414;-83
2023/12/26 06:07:39;;;;;;;3.30;1.40;;;;;;;;;;5075480;28;20211;-82
2023/12/26 06:10:05;;;;;;;2.70;1.10;;;;;;;;;;5076241;28;20571;-83
2023/12/26 06:12:31;;;;;;;8.23;1.60;;;;;;;;;;5074441;28;20568;-83
2023/12/26 06:14:57;;;;;;;5.53;1.80;;;;;;;;;;5074660;28;20177;-82
2023/12/26 06:17:24;;;;;;;1.53;1.30;;;;;;;;;;5074074;28;20399;-83
2023/12/26 06:19:50;;;;;;;1.90;1.45;;;;;;;;;;5074068;28;20423;-83
2023/12/26 06:22:16;;;;;;;3.17;1.35;;;;;;;;;;5074341;28;20239;-83
2023/12/26 06:24:42;;;;;;;5.03;1.53;;;;;;;;;;5074661;28;20177;-82
2023/12/26 06:27:08;;;;;;;2.50;1.40;;;;;;;;;;5074270;28;20408;-84
2023/12/26 06:29:34;;;;;;;3.57;1.47;;;;;;;;;;5073315;28;20774;-83
2023/12/26 06:32:00;;;;;;;4.10;1.90;;;;;;;;;;5074213;28;20493;-83
2023/12/26 06:34:26;;;;;;;2.35;1.23;;;;;;;;;;5072922;28;20832;-83
2023/12/26 06:36:52;;;;;;;3.10;1.25;;;;;;;;;;5074471;28;20169;-81
2023/12/26 06:39:18;;;;;;;8.60;2.00;;;;;;;;;;5072792;28;20189;-83
2023/12/26 06:41:44;;;;;;;2.80;1.50;;;;;;;;;;5074264;28;20960;-82
2023/12/26 06:44:10;;;;;;;4.60;1.40;;;;;;;;;;5074018;28;20177;-83
2023/12/26 06:46:43;;;;;;;2.90;1.25;;;;;;;;;;5073214;28;20676;-82
2023/12/26 06:49:09;;;;;;;1.67;1.00;;;;;;;;;;5073411;28;20708;-82
2023/12/26 06:51:41;;;;;;;6.45;1.20;;;;;;;;;;5074798;28;20292;-82
2023/12/26 06:54:07;;;;;;;4.20;1.63;;;;;;;;;;5074425;28;20234;-83
2023/12/26 06:56:33;;;;;;;4.70;1.40;;;;;;;;;;5073355;28;20544;-83
2023/12/26 06:58:59;;;;;;;4.60;1.63;;;;;;;;;;5074574;28;20176;-82
2023/12/26 07:01:26;;;;;;;6.25;1.45;;;;;;;;;;5074119;28;20464;-83
2023/12/26 07:03:52;;;;;;;1.77;1.20;;;;;;;;;;5074169;28;20621;-83
2023/12/26 07:06:18;;;;;;;3.13;1.00;;;;;;;;;;5076606;28;20179;-83
2023/12/26 07:08:44;;;;;;;3.15;1.20;;;;;;;;;;5077857;28;20810;-82
2023/12/26 07:11:10;;;;;;;1.75;1.17;;;;;;;;;;5077562;28;20209;-83
2023/12/26 07:13:36;;;;;;;6.03;1.95;;;;;;;;;;5077746;28;20185;-82
2023/12/26 07:16:02;;;;;;;5.03;2.90;;;;;;;;;;5077305;28;20180;-82
2023/12/26 07:18:28;;;;;;;4.10;1.47;;;;;;;;;;5077501;28;20912;-83
2023/12/26 07:20:53;;;;;;;3.60;1.60;;;;;;;;;;5077348;28;20472;-82
2023/12/26 07:23:19;;;;;;;4.63;1.70;;;;;;;;;;5077853;28;20173;-83
2023/12/26 07:25:45;;;;;;;2.08;1.10;;;;;;;;;;5078083;28;20892;-82
2023/12/26 07:28:14;;;;;;;5.22;1.65;;;;;;;;;;5077887;28;20203;-82
2023/12/26 07:30:40;;;;;;;1.83;1.10;;;;;;;;;;5077391;28;20177;-82
2023/12/26 07:33:06;;;;;;;3.55;1.52;;;;;;;;;;5077589;28;20243;-85
2023/12/26 07:35:34;;;;;;;6.13;1.85;;;;;;;;;;5077653;28;20172;-82
2023/12/26 07:38:00;;;;;;;3.97;1.30;;;;;;;;;;5077559;28;20179;-82
2023/12/26 07:40:26;;;;;;;5.43;1.93;;;;;;;;;;5076790;28;20172;-83
2023/12/26 07:42:52;;;;;;;2.90;1.55;;;;;;;;;;5077371;28;20464;-82
2023/12/26 07:45:23;;;;;;;3.67;1.10;;;;;;;;;;5077097;28;20236;-83
2023/12/26 07:47:49;;;;;;;2.97;1.83;;;;;;;;;;5077781;28;20180;-82
2023/12/26 07:50:15;;;;;;;2.10;1.25;;;;;;;;;;5077203;28;20233;-83
2023/12/26 07:52:41;;;;;;;6.55;1.60;;;;;;;;;;5077603;28;20219;-83
2023/12/26 07:55:07;;;;;;;4.93;2.00;;;;;;;;;;5077284;28;20181;-83
2023/12/26 07:57:33;;;;;;;5.72;1.25;;;;;;;;;;5077117;28;20435;-83
2023/12/26 07:59:59;;;;;;;3.97;1.27;;;;;;;;;;5077216;28;20510;-83
2023/12/26 08:02:25;;;;;;;6.37;2.03;;;;;;;;;;5076992;28;20396;-83
2023/12/26 08:04:51;;;;;;;4.50;2.00;;;;;;;;;;5077083;28;20400;-82
2023/12/26 08:07:17;;;;;;;7.10;1.40;;;;;;;;;;5077048;28;20745;-82
2023/12/26 08:09:43;;;;;;;5.00;1.70;;;;;;;;;;5076719;28;20403;-83
2023/12/26 08:12:09;;;;;;;3.53;1.50;;;;;;;;;;5076511;28;20208;-84
2023/12/26 08:14:35;;;;;;;4.50;1.45;;;;;;;;;;5076568;28;20418;-82
2023/12/26 08:17:01;;;;;;;3.60;1.80;;;;;;;;;;5076446;28;20172;-82
2023/12/26 08:19:27;;;;;;;5.13;1.75;;;;;;;;;;5076731;28;20426;-82
2023/12/26 08:21:53;;;;;;;5.00;2.25;;;;;;;;;;5076830;28;20209;-82
2023/12/26 08:24:19;;;;;;;5.30;3.55;;;;;;;;;;5076760;28;20184;-82
2023/12/26 08:26:45;;;;;;;3.70;1.80;;;;;;;;;;5075372;28;20173;-82
2023/12/26 08:29:11;;;;;;;2.78;1.45;;;;;;;;;;5075529;28;20212;-83
2023/12/26 08:31:37;;;;;;;4.60;1.33;;;;;;;;;;5076405;28;20688;-82
2023/12/26 08:34:03;;;;;;;4.30;1.83;;;;;;;;;;5077015;28;20426;-82
2023/12/26 08:36:29;;;;;;;4.37;1.43;;;;;;;;;;5076705;28;20169;-82
2023/12/26 08:38:55;;;;;;;7.13;1.70;;;;;;;;;;5076473;28;20464;-82
2023/12/26 08:41:22;;;;;;;4.07;1.47;;;;;;;;;;5076596;28;20411;-82
2023/12/26 08:43:48;;;;;;;9.45;2.08;;;;;;;;;;5075512;28;20411;-82
2023/12/26 08:46:14;;;;;;;8.70;1.65;;;;;;;;;;5076722;28;20197;-83
2023/12/26 08:48:40;;;;;;;4.82;2.35;;;;;;;;;;5076503;28;20728;-83
2023/12/26 08:51:06;;;;;;;7.40;2.80;;;;;;;;;;5076461;28;20225;-81
2023/12/26 08:53:32;;;;;;;4.60;2.00;;;;;;;;;;5076561;28;20185;-82
2023/12/26 08:55:58;;;;;;;9.20;1.92;;;;;;;;;;5076390;28;20813;-82
2023/12/26 08:58:27;;;;;;;4.22;1.90;;;;;;;;;;5076667;28;20173;-82
2023/12/26 09:00:53;;;;;;;6.13;2.05;;;;;;;;;;5076845;28;20184;-82
2023/12/26 09:03:19;;;;;;;5.87;1.50;;;;;;;;;;5076288;28;20183;-82
2023/12/26 09:05:45;;;;;;;7.27;2.93;;;;;;;;;;5076353;28;20404;-81
2023/12/26 09:08:11;;;;;;;5.63;1.60;;;;;;;;;;5076769;28;20427;-81
2023/12/26 09:10:37;;;;;;;5.35;1.60;;;;;;;;;;5074743;28;20435;-81
2023/12/26 09:13:03;;;;;;;2.92;1.80;;;;;;;;;;5074828;28;20219;-82
2023/12/26 09:15:28;;;;;;;4.55;1.80;;;;;;;;;;5074305;28;20189;-82
2023/12/26 09:17:54;;;;;;;6.40;1.70;;;;;;;;;;5076058;28;20231;-82
2023/12/26 09:20:20;;;;;;;7.03;1.93;;;;;;;;;;5075649;28;20407;-81
2023/12/26 09:22:46;;;;;;;16.30;2.07;;;;;;;;;;5075676;28;20451;-81
2023/12/26 09:25:13;;;;;;;7.60;2.30;;;;;;;;;;5075301;28;20780;-82
2023/12/26 09:27:39;;;;;;;9.50;2.75;;;;;;;;;;5076098;28;20498;-81
2023/12/26 09:30:07;;;;;;;2.10;1.57;;;;;;;;;;5075397;28;20200;-81
2023/12/26 09:32:33;;;;;;;4.53;1.45;;;;;;;;;;5075701;28;20463;-82
2023/12/26 09:34:59;;;;;;;3.13;1.93;;;;;;;;;;5080942;28;20587;-82
2023/12/26 09:37:25;;;;;;;3.30;1.80;;;;;;;;;;5078905;28;20486;-81
2023/12/26 09:39:51;;;;;;;8.00;2.23;;;;;;;;;;5075155;28;20453;-82
2023/12/26 09:42:22;;;;;;;5.55;2.30;;;;;;;;;;5076065;28;20422;-82
2023/12/26 09:44:49;;;;;;;18.65;2.03;;;;;;;;;;5076129;28;20173;-82
2023/12/26 09:47:19;;;;;;;4.38;1.50;;;;;;;;;;5075684;28;20176;-83
2023/12/26 09:49:47;;;;;;;6.00;1.63;;;;;;;;;;5075223;28;20239;-82
2023/12/26 09:52:14;;;;;;;9.30;2.13;;;;;;;;;;5075526;28;20200;-81
2023/12/26 09:54:41;;;;;;;5.80;2.00;;;;;;;;;;5075488;28;20180;-82
2023/12/26 09:57:09;;;;;;;7.18;1.77;;;;;;;;;;5075714;28;20173;-81
2023/12/26 09:59:37;;;;;;;9.35;1.65;;;;;;;;;;5075261;28;20227;-81
2023/12/26 10:02:03;;;;;;;7.82;1.55;;;;;;;;;;5076235;28;20191;-81
2023/12/26 10:04:29;;;;;;;6.28;1.73;;;;;;;;;;5075276;28;20231;-81
2023/12/26 10:06:55;;;;;;;5.43;1.60;;;;;;;;;;5075461;28;20175;-80
2023/12/26 10:09:21;;;;;;;5.50;1.57;;;;;;;;;;5074825;28;20632;-82
2023/12/26 10:11:47;;;;;;;6.82;1.23;;;;;;;;;;5075658;28;20511;-81
2023/12/26 10:14:20;;;;;;;3.10;1.20;;;;;;;;;;5075331;28;20268;-82
2023/12/26 10:16:48;;;;;;;11.60;1.92;;;;;;;;;;5075639;28;20404;-82
2023/12/26 10:19:14;;;;;;;3.10;1.20;;;;;;;;;;5075380;28;20264;-81
2023/12/26 10:21:41;;;;;;;4.32;1.95;;;;;;;;;;5074866;28;20200;-81
2023/12/26 10:24:10;;;;;;;7.13;1.47;;;;;;;;;;5075075;28;20172;-81
2023/12/26 10:26:36;;;;;;;3.00;1.30;;;;;;;;;;5075022;28;20396;-81
2023/12/26 10:29:02;;;;;;;5.37;1.57;;;;;;;;;;5075035;28;20177;-81
2023/12/26 10:31:28;;;;;;;7.00;1.50;;;;;;;;;;5074504;28;20469;-81
2023/12/26 10:33:54;;;;;;;3.25;1.48;;;;;;;;;;5074987;28;20672;-81
2023/12/26 10:36:20;;;;;;;3.03;1.27;;;;;;;;;;5075867;28;20187;-81
2023/12/26 10:38:46;;;;;;;4.60;1.47;;;;;;;;;;5076746;28;20268;-81
2023/12/26 10:41:25;;;;;;;1.87;1.17;;;;;;;;;;5078004;28;20405;-82
2023/12/26 10:43:53;;;;;;;12.35;1.40;;;;;;;;;;5079255;28;20980;-82
2023/12/26 10:46:20;;;;;;;2.85;1.10;;;;;;;;;;5078620;28;20173;-84
2023/12/26 10:48:48;;;;;;;10.40;1.45;;;;;;;;;;5078663;28;20181;-82
2023/12/26 10:51:15;;;;;;;6.00;1.48;;;;;;;;;;5078741;28;20538;-82
2023/12/26 10:53:49;;;;;;;10.90;1.95;;;;;;;;;;5078181;28;20264;-82
2023/12/26 10:56:15;;;;;;;6.25;1.58;;;;;;;;;;5079211;28;20299;-81
2023/12/26 10:58:41;;;;;;;4.50;1.50;;;;;;;;;;5078500;28;20180;-82
2023/12/26 11:01:08;;;;;;;5.65;1.77;;;;;;;;;;5078477;28;20185;-81
2023/12/26 13:51:51;;;;;;;6.80;1.80;;;;;;;;;;5075686;28;20212;-81
2023/12/26 13:54:19;;;;;;;6.53;1.80;;;;;;;;;;5081800;28;20192;-80
2023/12/26 13:56:45;;;;;;;3.10;1.15;;;;;;;;;;5080250;28;20176;-81
2023/12/26 13:59:11;;;;;;;7.23;1.97;;;;;;;;;;5076650;28;20245;-81
2023/12/26 14:01:37;;;;;;;4.70;1.60;;;;;;;;;;5075927;28;20411;-81
2023/12/26 14:04:03;;;;;;;6.87;1.70;;;;;;;;;;5075274;28;20500;-81
2023/12/26 14:06:29;;;;;;;6.95;1.50;;;;;;;;;;5085746;28;20435;-80
2023/12/26 14:08:55;;;;;;;7.65;1.92;;;;;;;;;;5083801;28;20232;-80
2023/12/26 14:11:22;;;;;;;2.73;1.30;;;;;;;;;;5085532;28;20168;-81
2023/12/26 14:13:49;;;;;;;7.05;1.60;;;;;;;;;;5075649;28;20414;-80
2023/12/26 14:16:18;;;;;;;4.72;1.20;;;;;;;;;;5077675;28;20235;-81
2023/12/26 14:18:44;;;;;;;6.55;1.73;;;;;;;;;;5075061;28;20224;-81
2023/12/26 14:21:10;;;;;;;4.83;1.23;;;;;;;;;;5075668;28;20636;-81
2023/12/26 14:23:36;;;;;;;3.60;1.77;;;;;;;;;;5075359;28;20490;-82
2023/12/26 14:26:02;;;;;;;7.37;1.43;;;;;;;;;;5075754;28;20407;-82
2023/12/26 14:28:28;;;;;;;3.93;1.23;;;;;;;;;;5075529;28;20411;-82
2023/12/26 14:30:54;;;;;;;6.93;1.87;;;;;;;;;;5075569;28;20421;-80
2023/12/26 14:33:20;;;;;;;3.93;1.60;;;;;;;;;;5081400;28;20487;-83
2023/12/26 14:35:50;;;;;;;3.88;1.27;;;;;;;;;;5077334;28;20477;-82
2023/12/26 14:38:16;;;;;;;7.75;1.58;;;;;;;;;;5079964;28;20249;-80
2023/12/26 14:40:42;;;;;;;7.47;1.98;;;;;;;;;;5076286;28;20230;-80
2023/12/26 14:43:08;;;;;;;7.88;1.92;;;;;;;;;;5074860;28;20200;-81
2023/12/26 14:45:34;;;;;;;7.13;2.50;;;;;;;;;;5073566;28;20527;-82
2023/12/26 14:48:00;;;;;;;11.20;2.60;;;;;;;;;;5075060;28;20177;-81
2023/12/26 14:50:26;;;;;;;6.80;1.87;;;;;;;;;;5075710;28;20255;-82
2023/12/26 14:52:52;;;;;;;5.97;2.00;;;;;;;;;;5074630;28;20477;-81
2023/12/26 14:55:18;;;;;;;6.50;1.90;;;;;;;;;;5073671;28;20429;-81
2023/12/26 14:57:44;;;;;;;8.73;2.33;;;;;;;;;;5074655;28;20435;-82
2023/12/26 15:00:10;;;;;;;8.67;3.57;;;;;;;;;;5075118;28;20411;-81
2023/12/26 15:02:36;;;;;;;6.55;2.67;;;;;;;;;;5073462;28;20403;-82
2023/12/26 15:05:02;;;;;;;11.88;2.40;;;;;;;;;;5074006;28;20264;-81
2023/12/26 15:07:28;;;;;;;8.00;2.30;;;;;;;;;;5074750;28;20222;-81
2023/12/26 15:09:54;;;;;;;10.38;3.75;;;;;;;;;;5074709;28;20586;-81
2023/12/26 15:12:21;;;;;;;9.60;2.33;;;;;;;;;;5074513;28;20205;-81
2023/12/26 15:14:47;;;;;;;8.50;2.65;;;;;;;;;;5074513;28;20446;-82
2023/12/26 15:17:13;;;;;;;12.75;3.22;;;;;;;;;;5073150;28;20180;-83
2023/12/26 15:19:39;;;;;;;5.95;1.65;;;;;;;;;;5074439;28;20188;-82
2023/12/26 15:22:05;;;;;;;9.93;2.47;;;;;;;;;;5073271;28;20188;-82
2023/12/26 15:24:31;;;;;;;8.70;2.03;;;;;;;;;;5074740;28;20182;-81
2023/12/26 15:26:57;;;;;;;10.88;2.72;;;;;;;;;;5074804;28;20395;-82
2023/12/26 15:29:23;;;;;;;5.30;2.30;;;;;;;;;;5078193;28;20566;-82
2023/12/26 15:31:49;;;;;;;10.63;2.97;;;;;;;;;;5081587;28;20442;-82
2023/12/26 15:34:15;;;;;;;9.43;2.20;;;;;;;;;;5077022;28;20428;-82
2023/12/26 15:36:41;;;;;;;8.70;3.40;;;;;;;;;;5077567;28;20403;-82
2023/12/26 15:39:10;;;;;;;7.25;3.20;;;;;;;;;;5078115;28;20911;-82
2023/12/26 15:41:36;;;;;;;15.63;3.20;;;;;;;;;;5076362;28;20185;-83
2023/12/26 15:44:02;;;;;;;8.52;2.20;;;;;;;;;;5078049;28;20177;-82
2023/12/26 15:46:28;;;;;;;6.53;2.70;;;;;;;;;;5077469;28;20185;-82
2023/12/26 15:48:55;;;;;;;9.50;2.27;;;;;;;;;;5077425;28;20256;-82
2023/12/26 15:51:24;;;;;;;14.27;2.83;;;;;;;;;;5077693;28;20456;-82
2023/12/26 15:53:50;;;;;;;9.02;1.90;;;;;;;;;;5077233;28;20234;-82
2023/12/26 15:56:20;;;;;;;7.85;1.77;;;;;;;;;;5077744;28;20180;-82
2023/12/26 15:58:46;;;;;;;6.53;1.30;;;;;;;;;;5076821;28;20778;-82
2023/12/26 16:01:12;;;;;;;6.80;1.80;;;;;;;;;;5076819;28;20227;-82
2023/12/26 16:03:38;;;;;;;8.82;2.00;;;;;;;;;;5077238;28;20514;-83
2023/12/26 16:06:04;;;;;;;11.75;2.28;;;;;;;;;;5076445;28;20181;-82
2023/12/26 16:08:30;;;;;;;9.10;2.15;;;;;;;;;;5077912;28;20168;-82
2023/12/26 16:10:57;;;;;;;11.97;2.77;;;;;;;;;;5077443;28;20185;-82
2023/12/26 16:13:23;;;;;;;11.27;2.75;;;;;;;;;;5077415;28;20479;-83
2023/12/26 16:15:49;;;;;;;14.18;2.60;;;;;;;;;;5077625;28;20227;-82
2023/12/26 16:18:16;;;;;;;14.57;1.97;;;;;;;;;;5078124;28;20179;-82
2023/12/26 16:20:42;;;;;;;8.38;2.30;;;;;;;;;;5077358;28;20419;-83
2023/12/26 16:23:11;;;;;;;6.90;2.30;;;;;;;;;;5075863;28;20275;-83
2023/12/26 16:25:37;;;;;;;9.15;3.22;;;;;;;;;;5077114;28;20407;-82
2023/12/26 16:28:03;;;;;;;8.20;2.03;;;;;;;;;;5075980;28;20176;-82
2023/12/26 16:30:29;;;;;;;10.75;2.22;;;;;;;;;;5077063;28;20535;-82
2023/12/26 16:32:55;;;;;;;7.95;2.65;;;;;;;;;;5076626;28;20563;-82
2023/12/26 16:35:21;;;;;;;8.60;2.45;;;;;;;;;;5075792;28;20187;-82
2023/12/26 16:37:47;;;;;;;7.77;2.43;;;;;;;;;;5075988;28;20251;-82
2023/12/26 16:40:13;;;;;;;9.77;2.70;;;;;;;;;;5077103;28;20894;-82
2023/12/26 16:42:39;;;;;;;10.77;2.65;;;;;;;;;;5076618;28;20180;-85
2023/12/26 16:45:05;;;;;;;8.43;2.78;;;;;;;;;;5081701;28;20643;-82
2023/12/26 16:47:32;;;;;;;9.82;2.33;;;;;;;;;;5077138;28;20277;-82
2023/12/26 16:49:58;;;;;;;11.90;3.78;;;;;;;;;;5075562;28;20256;-82
2023/12/26 16:52:24;;;;;;;8.43;2.60;;;;;;;;;;5076912;28;20206;-80
2023/12/26 16:54:51;;;;;;;7.28;2.30;;;;;;;;;;5075583;28;20222;-80
2023/12/26 16:57:17;;;;;;;17.58;5.07;;;;;;;;;;5076815;28;20237;-81
2023/12/26 16:59:45;;;;;;;12.02;2.95;;;;;;;;;;5076645;28;20221;-81
2023/12/26 17:02:11;;;;;;;15.38;2.80;;;;;;;;;;5076724;28;20193;-81
2023/12/26 17:04:38;;;;;;;13.07;3.15;;;;;;;;;;5076161;28;20175;-81
2023/12/26 17:07:04;;;;;;;23.73;10.18;;;;;;;;;;5076146;28;20171;-82
2023/12/26 17:09:30;;;;;;;15.10;6.53;;;;;;;;;;5075927;28;20231;-81
2023/12/26 17:11:56;;;;;;;24.73;10.68;;;;;;;;;;5076575;28;20201;-81
2023/12/26 17:14:23;;;;;;;16.58;3.40;;;;;;;;;;5076630;28;20572;-81
2023/12/26 17:16:49;;;;;;;9.30;2.35;;;;;;;;;;5075113;28;20180;-81
2023/12/26 17:19:15;;;;;;;12.60;3.40;;;;;;;;;;5076474;28;20211;-81
2023/12/26 17:21:42;;;;;;;11.97;3.03;;;;;;;;;;5076490;28;20633;-81
2023/12/26 17:24:09;;;;;;;13.70;3.90;;;;;;;;;;5076449;28;20456;-81